createdAt,value
2023-01-28T00:02:03.658Z,95948.48
2023-01-28T00:04:31.862Z,95949.73
2023-01-28T00:06:59.903Z,95947.30
2023-01-28T00:09:27.773Z,95951.96
2023-01-28T00:11:55.658Z,95953.09
2023-01-28T00:14:23.625Z,95947.48
2023-01-28T00:16:51.466Z,95949.14
2023-01-28T00:19:19.248Z,95947.13
2023-01-28T00:21:47.128Z,95950.48
2023-01-28T00:24:15.439Z,95954.16
2023-01-28T00:26:43.768Z,95953.88
2023-01-28T00:29:29.252Z,95953.73
2023-01-28T00:31:59.514Z,95953.23
2023-01-28T00:34:31.858Z,95950.14
2023-01-28T00:37:21.478Z,95953.58
2023-01-28T00:39:55.295Z,95956.67
2023-01-28T00:42:46.849Z,95955.10
2023-01-28T00:45:21.870Z,95951.56
2023-01-28T00:48:12.215Z,95953.90
2023-01-28T00:51:00.887Z,95954.11
2023-01-28T00:53:55.158Z,95957.21
2023-01-28T00:56:45.251Z,95960.40
2023-01-28T00:59:14.080Z,95958.96
2023-01-28T01:01:46.217Z,95959.92
2023-01-28T01:04:36.835Z,95959.06
2023-01-28T01:07:04.917Z,95960.07
2023-01-28T01:09:36.320Z,95959.95
2023-01-28T01:12:09.007Z,95961.94
2023-01-28T01:14:56.835Z,95960.61
2023-01-28T01:17:25.575Z,95961.39
2023-01-28T01:19:55.717Z,95963.76
2023-01-28T01:22:25.491Z,95965.19
2023-01-28T01:25:03.959Z,95964.46
2023-01-28T01:27:35.969Z,95965.46
2023-01-28T01:30:04.410Z,95965.51
2023-01-28T01:32:34.958Z,95960.59
2023-01-28T01:35:10.369Z,95965.14
2023-01-28T01:37:44.975Z,95964.15
2023-01-28T01:40:13.647Z,95972.35
2023-01-28T01:42:42.026Z,95973.84
2023-01-28T01:45:21.189Z,95971.20
2023-01-28T01:48:10.960Z,95975.43
2023-01-28T01:50:47.515Z,95976.97
2023-01-28T01:53:32.671Z,95977.58
2023-01-28T01:56:04.338Z,95978.74
2023-01-28T01:58:39.553Z,95976.13
2023-01-28T02:01:14.123Z,95976.50
2023-01-28T02:04:03.758Z,95975.27
2023-01-28T02:06:40.252Z,95971.61
2023-01-28T02:09:26.498Z,95966.26
2023-01-28T02:12:00.873Z,95970.64
2023-01-28T02:14:33.288Z,95981.30
2023-01-28T02:17:06.493Z,95980.98
2023-01-28T02:19:45.871Z,95983.48
2023-01-28T02:22:46.189Z,95979.45
2023-01-28T02:25:45.720Z,95980.65
2023-01-28T02:28:32.707Z,95982.82
2023-01-28T02:31:20.782Z,95983.98
2023-01-28T02:34:10.144Z,95981.59
2023-01-28T02:36:49.527Z,95980.67
2023-01-28T02:39:29.277Z,95978.95
2023-01-28T02:42:07.274Z,95979.13
2023-01-28T02:44:35.841Z,95975.84
2023-01-28T02:47:26.969Z,95978.46
2023-01-28T02:50:00.169Z,95980.13
2023-01-28T02:53:17.232Z,95973.88
2023-01-28T02:55:55.648Z,95971.40
2023-01-28T02:58:54.330Z,95970.55
2023-01-28T03:01:38.401Z,95971.48
2023-01-28T03:04:45.605Z,95972.02
2023-01-28T03:07:18.309Z,95971.01
2023-01-28T03:09:58.991Z,95968.61
2023-01-28T03:13:08.647Z,95970.52
2023-01-28T03:16:08.930Z,95974.70
2023-01-28T03:18:59.646Z,95979.79
2023-01-28T03:21:51.094Z,95977.38
2023-01-28T03:24:49.244Z,95978.77
2023-01-28T03:28:37.428Z,95980.35
2023-01-28T03:32:02.391Z,95976.98
2023-01-28T03:35:44.754Z,95973.61
2023-01-28T03:39:13.360Z,95976.96
2023-01-28T03:43:13.424Z,95973.66
2023-01-28T03:46:51.423Z,95982.52
2023-01-28T03:50:46.400Z,95981.96
2023-01-28T03:54:33.412Z,95985.02
2023-01-28T03:58:08.762Z,95983.63
2023-01-28T04:00:58.360Z,95986.09
2023-01-28T04:03:32.596Z,95987.03
2023-01-28T04:06:16.722Z,95984.84
2023-01-28T04:09:16.154Z,95984.23
2023-01-28T04:11:59.998Z,95991.56
2023-01-28T04:14:43.032Z,95993.85
2023-01-28T04:17:18.552Z,95994.96
2023-01-28T04:20:09.416Z,95999.32
2023-01-28T04:22:41.723Z,96004.73
2023-01-28T04:25:37.748Z,96005.42
2023-01-28T04:28:31.457Z,96006.09
2023-01-28T04:31:05.572Z,96009.49
2023-01-28T04:33:46.495Z,96013.45
2023-01-28T04:36:28.824Z,96011.62
2023-01-28T04:39:16.540Z,96015.60
2023-01-28T04:42:01.712Z,96019.27
2023-01-28T04:44:46.828Z,96019.23
2023-01-28T04:47:28.368Z,96023.79
2023-01-28T04:50:06.483Z,96030.71
2023-01-28T04:52:51.230Z,96030.23
2023-01-28T04:55:37.748Z,96032.92
2023-01-28T04:58:07.270Z,96034.44
2023-01-28T05:00:57.679Z,96038.14
2023-01-28T05:03:27.550Z,96036.41
2023-01-28T05:05:56.457Z,96038.24
2023-01-28T05:08:46.325Z,96042.20
2023-01-28T05:11:17.207Z,96044.21
2023-01-28T05:13:46.720Z,96048.77
2023-01-28T05:16:17.125Z,96052.04
2023-01-28T05:18:48.241Z,96050.61
2023-01-28T05:21:20.802Z,96051.13
2023-01-28T05:23:57.096Z,96047.94
2023-01-28T05:26:51.361Z,96052.00
2023-01-28T05:30:07.508Z,96055.62
2023-01-28T05:33:46.731Z,96053.16
2023-01-28T05:37:02.414Z,96054.98
2023-01-28T05:39:34.540Z,96059.58
2023-01-28T05:42:09.359Z,96067.01
2023-01-28T05:44:42.280Z,96063.26
2023-01-28T05:47:19.624Z,96064.45
2023-01-28T05:49:53.656Z,96066.45
2023-01-28T05:52:37.854Z,96070.80
2023-01-28T05:55:12.270Z,96071.58
2023-01-28T05:57:40.436Z,96076.80
2023-01-28T06:00:13.669Z,96077.29
2023-01-28T06:02:51.654Z,96082.63
2023-01-28T06:05:27.644Z,96082.37
2023-01-28T06:08:00.094Z,96083.39
2023-01-28T06:10:36.049Z,96084.59
2023-01-28T06:13:04.454Z,96088.39
2023-01-28T06:15:52.451Z,96092.39
2023-01-28T06:18:36.998Z,96094.64
2023-01-28T06:21:05.128Z,96099.75
2023-01-28T06:23:33.743Z,96106.68
2023-01-28T06:26:05.176Z,96113.42
2023-01-28T06:28:34.485Z,96117.88
2023-01-28T06:31:02.655Z,96125.84
2023-01-28T06:33:34.262Z,96124.38
2023-01-28T06:36:08.911Z,96130.88
2023-01-28T06:38:36.945Z,96131.06
2023-01-28T06:41:06.214Z,96127.60
2023-01-28T06:43:36.850Z,96128.64
2023-01-28T06:46:09.669Z,96128.95
2023-01-28T06:48:41.528Z,96129.64
2023-01-28T06:51:11.860Z,96131.00
2023-01-28T06:53:40.254Z,96130.15
2023-01-28T06:56:10.286Z,96130.86
2023-01-28T06:58:47.584Z,96137.81
2023-01-28T07:01:23.290Z,96137.91
2023-01-28T07:03:51.419Z,96137.69
2023-01-28T07:06:20.021Z,96138.83
2023-01-28T07:09:02.208Z,96142.21
2023-01-28T07:11:30.998Z,96148.02
2023-01-28T07:14:11.971Z,96155.80
2023-01-28T07:16:53.908Z,96155.36
2023-01-28T07:19:25.194Z,96156.89
2023-01-28T07:21:58.000Z,96159.90
2023-01-28T07:24:26.425Z,96162.30
2023-01-28T07:26:54.849Z,96161.95
2023-01-28T07:29:23.125Z,96161.19
2023-01-28T07:31:52.445Z,96164.24
2023-01-28T07:34:22.650Z,96164.45
2023-01-28T07:36:50.862Z,96167.23
2023-01-28T07:39:23.745Z,96166.56
2023-01-28T07:41:54.624Z,96170.77
2023-01-28T07:44:43.382Z,96175.50
2023-01-28T07:47:14.604Z,96173.95
2023-01-28T07:49:46.716Z,96171.92
2023-01-28T07:52:27.586Z,96172.44
2023-01-28T07:55:00.196Z,96172.51
2023-01-28T07:57:30.701Z,96171.19
2023-01-28T08:00:01.991Z,96174.03
2023-01-28T08:03:01.169Z,96176.96
2023-01-28T08:06:02.030Z,96184.59
2023-01-28T08:08:51.391Z,96186.16
2023-01-28T08:12:22.729Z,96189.36
2023-01-28T08:14:54.831Z,96196.04
2023-01-28T08:17:24.212Z,96193.86
2023-01-28T08:19:54.260Z,96197.04
2023-01-28T08:22:29.907Z,96197.98
2023-01-28T08:25:04.611Z,96197.86
2023-01-28T08:27:43.847Z,96198.42
2023-01-28T08:30:46.628Z,96198.66
2023-01-28T08:33:21.039Z,96197.55
2023-01-28T08:36:09.673Z,96200.17
2023-01-28T08:38:41.810Z,96198.63
2023-01-28T08:41:10.227Z,96197.05
2023-01-28T08:43:40.237Z,96199.00
2023-01-28T08:46:13.792Z,96200.69
2023-01-28T08:49:16.775Z,96200.90
2023-01-28T08:51:45.814Z,96203.18
2023-01-28T08:54:15.952Z,96206.38
2023-01-28T08:56:51.175Z,96203.63
2023-01-28T08:59:21.229Z,96202.28
2023-01-28T09:01:51.412Z,96205.52
2023-01-28T09:04:24.538Z,96207.45
2023-01-28T09:06:55.717Z,96207.67
2023-01-28T09:09:35.889Z,96212.31
2023-01-28T09:12:06.220Z,96207.54
2023-01-28T09:14:34.391Z,96211.05
2023-01-28T09:17:02.630Z,96213.88
2023-01-28T09:19:30.791Z,96207.23
2023-01-28T09:21:58.816Z,96202.10
2023-01-28T09:24:27.119Z,96201.31
2023-01-28T09:26:55.387Z,96204.54
2023-01-28T09:29:23.669Z,96204.23
2023-01-28T09:31:52.291Z,96204.40
2023-01-28T09:34:20.556Z,96206.14
2023-01-28T09:36:48.714Z,96205.63
2023-01-28T09:39:16.886Z,96209.13
2023-01-28T09:42:11.815Z,96209.48
2023-01-28T09:45:04.128Z,96213.58
2023-01-28T09:47:41.576Z,96212.70
2023-01-28T09:50:18.817Z,96210.19
2023-01-28T09:52:47.655Z,96209.36
2023-01-28T09:55:35.851Z,96209.64
2023-01-28T09:58:09.248Z,96208.20
2023-01-28T10:01:02.628Z,96208.02
2023-01-28T10:04:05.609Z,96205.76
2023-01-28T10:06:55.166Z,96210.11
2023-01-28T10:09:42.629Z,96209.80
2023-01-28T10:12:35.383Z,96214.77
2023-01-28T10:15:29.541Z,96211.27
2023-01-28T10:18:16.049Z,96211.98
2023-01-28T10:20:51.437Z,96209.13
2023-01-28T10:23:30.854Z,96203.64
2023-01-28T10:26:05.366Z,96200.36
2023-01-28T10:28:36.018Z,96197.49
2023-01-28T10:31:12.902Z,96196.90
2023-01-28T10:33:41.061Z,96195.00
2023-01-28T10:36:10.071Z,96196.59
2023-01-28T10:38:38.815Z,96199.35
2023-01-28T10:41:08.932Z,96197.39
2023-01-28T10:43:41.853Z,96198.71
2023-01-28T10:46:16.724Z,96202.27
2023-01-28T10:48:55.591Z,96204.08
2023-01-28T10:51:39.737Z,96207.98
2023-01-28T10:54:19.881Z,96204.32
2023-01-28T10:56:50.775Z,96208.42
2023-01-28T10:59:22.861Z,96205.98
2023-01-28T11:01:54.278Z,96207.02
2023-01-28T11:04:32.799Z,96204.76
2023-01-28T11:07:05.041Z,96201.65
2023-01-28T11:09:35.708Z,96203.60
2023-01-28T11:12:34.407Z,96201.92
2023-01-28T11:16:14.537Z,96201.81
2023-01-28T11:20:21.564Z,96197.45
2023-01-28T11:23:50.454Z,96200.05
2023-01-28T11:27:15.422Z,96192.84
2023-01-28T11:30:08.259Z,96194.39
2023-01-28T11:32:36.467Z,96193.31
2023-01-28T11:35:06.246Z,96189.50
2023-01-28T11:37:35.817Z,96186.38
2023-01-28T11:40:21.457Z,96188.80
2023-01-28T11:43:07.993Z,96186.38
2023-01-28T11:45:52.737Z,96187.90
2023-01-28T11:51:55.419Z,96188.77
2023-01-28T11:54:39.749Z,96188.02
2023-01-28T11:57:25.973Z,96187.62
2023-01-28T12:00:24.991Z,96187.61
2023-01-28T12:03:23.867Z,96187.27
2023-01-28T12:05:57.887Z,96190.89
2023-01-28T12:08:49.398Z,96191.80
2023-01-28T12:14:57.734Z,96199.89
2023-01-28T12:17:47.009Z,96199.45
2023-01-28T12:20:48.505Z,96197.89
2023-01-28T12:23:31.593Z,96201.45
2023-01-28T12:26:14.335Z,96200.48
2023-01-28T12:28:58.027Z,96204.39
2023-01-28T12:32:18.028Z,96201.30
2023-01-28T12:35:18.714Z,96205.28
2023-01-28T12:38:28.274Z,96207.27
2023-01-28T12:41:14.498Z,96210.34
2023-01-28T12:44:09.550Z,96214.50
2023-01-28T12:46:52.118Z,96216.94
2023-01-28T12:49:42.391Z,96220.10
2023-01-28T12:52:19.779Z,96222.80
2023-01-28T12:55:26.061Z,96221.94
2023-01-28T12:58:01.303Z,96228.04
2023-01-28T13:00:51.572Z,96228.52
2023-01-28T13:03:35.748Z,96229.52
2023-01-28T13:06:11.016Z,96229.92
2023-01-28T13:09:08.479Z,96233.84
2023-01-28T13:11:51.212Z,96232.23
2023-01-28T13:14:23.861Z,96235.33
2023-01-28T13:16:54.399Z,96237.80
2023-01-28T13:19:45.646Z,96235.23
2023-01-28T13:22:30.928Z,96235.91
2023-01-28T13:25:16.575Z,96237.70
2023-01-28T13:27:59.546Z,96239.76
2023-01-28T13:30:31.961Z,96239.50
2023-01-28T13:33:04.295Z,96242.83
2023-01-28T13:35:37.501Z,96246.10
2023-01-28T13:38:34.372Z,96244.55
2023-01-28T13:41:06.537Z,96248.09
2023-01-28T13:43:40.944Z,96250.73
2023-01-28T13:46:12.538Z,96251.26
2023-01-28T13:48:51.096Z,96252.89
2023-01-28T13:51:24.331Z,96257.45
2023-01-28T13:54:18.412Z,96260.81
2023-01-28T13:57:06.004Z,96259.86
2023-01-28T13:59:54.178Z,96264.52
2023-01-28T14:02:53.326Z,96264.37
2023-01-28T14:05:52.443Z,96264.73
2023-01-28T14:08:55.599Z,96266.80
2023-01-28T14:12:02.489Z,96266.52
2023-01-28T14:14:45.650Z,96270.47
2023-01-28T14:17:29.534Z,96271.05
2023-01-28T14:20:02.217Z,96274.69
2023-01-28T14:22:30.840Z,96274.10
2023-01-28T14:25:02.292Z,96273.96
2023-01-28T14:27:42.568Z,96277.89
2023-01-28T14:30:21.849Z,96279.77
2023-01-28T14:32:52.962Z,96280.98
2023-01-28T14:35:39.947Z,96282.12
2023-01-28T14:38:14.187Z,96281.29
2023-01-28T14:40:43.841Z,96283.67
2023-01-28T14:43:20.955Z,96284.16
2023-01-28T14:46:05.021Z,96290.05
2023-01-28T14:49:06.669Z,96290.81
2023-01-28T14:51:49.753Z,96295.55
2023-01-28T14:54:36.521Z,96297.14
2023-01-28T14:57:23.586Z,96298.55
2023-01-28T14:59:54.071Z,96301.30
2023-01-28T15:02:25.486Z,96301.67
2023-01-28T15:05:05.725Z,96300.77
2023-01-28T15:07:35.456Z,96301.79
2023-01-28T15:10:08.107Z,96303.48
2023-01-28T15:12:40.193Z,96306.66
2023-01-28T15:15:27.708Z,96308.95
2023-01-28T15:18:03.052Z,96308.45
2023-01-28T15:20:32.142Z,96313.60
2023-01-28T15:23:02.012Z,96315.81
2023-01-28T15:25:30.608Z,96313.39
2023-01-28T15:28:01.681Z,96314.04
2023-01-28T15:31:01.054Z,96317.40
2023-01-28T15:33:29.721Z,96317.98
2023-01-28T15:35:59.245Z,96318.70
2023-01-28T15:38:29.036Z,96323.39
2023-01-28T15:41:02.274Z,96325.20
2023-01-28T15:43:36.439Z,96326.70
2023-01-28T15:46:22.727Z,96329.08
2023-01-28T15:49:05.630Z,96332.36
2023-01-28T15:51:34.353Z,96336.10
2023-01-28T15:54:07.131Z,96337.48
2023-01-28T15:56:36.411Z,96340.50
2023-01-28T15:59:28.476Z,96341.85
2023-01-28T16:02:24.710Z,96343.31
2023-01-28T16:04:59.410Z,96341.38
2023-01-28T16:07:30.439Z,96343.53
2023-01-28T16:10:02.203Z,96344.44
2023-01-28T16:12:30.237Z,96345.33
2023-01-28T16:15:02.312Z,96345.66
2023-01-28T16:17:44.604Z,96348.15
2023-01-28T16:20:39.474Z,96353.30
2023-01-28T16:23:22.539Z,96354.94
2023-01-28T16:26:05.743Z,96364.16
2023-01-28T16:28:36.280Z,96360.81
2023-01-28T16:31:06.873Z,96360.94
2023-01-28T16:33:36.353Z,96359.88
2023-01-28T16:36:11.835Z,96360.36
2023-01-28T16:38:43.149Z,96361.31
2023-01-28T16:41:38.940Z,96369.67
2023-01-28T16:44:07.278Z,96376.13
2023-01-28T16:46:37.665Z,96379.07
2023-01-28T16:49:06.302Z,96383.58
2023-01-28T16:51:40.371Z,96390.05
2023-01-28T16:56:51.183Z,96393.26
2023-01-28T16:59:23.313Z,96394.98
2023-01-28T17:01:52.338Z,96400.75
2023-01-28T17:04:23.206Z,96397.36
2023-01-28T17:06:53.148Z,96399.71
2023-01-28T17:09:48.367Z,96400.89
2023-01-28T17:12:58.419Z,96406.36
2023-01-28T17:16:12.418Z,96404.94
2023-01-28T17:19:27.379Z,96406.17
2023-01-28T17:23:07.375Z,96406.86
2023-01-28T17:26:21.063Z,96408.88
2023-01-28T17:29:41.364Z,96410.52
2023-01-28T17:33:12.644Z,96414.14
2023-01-28T17:36:40.348Z,96425.06
2023-01-28T17:39:24.588Z,96421.50
2023-01-28T17:42:17.404Z,96428.42
2023-01-28T17:45:37.397Z,96425.47
2023-01-28T17:48:41.355Z,96425.30
2023-01-28T17:51:56.365Z,96429.80
2023-01-28T17:55:14.735Z,96436.65
2023-01-28T17:58:35.370Z,96436.10
2023-01-28T18:02:03.347Z,96436.95
2023-01-28T18:05:16.752Z,96433.20
2023-01-28T18:08:17.316Z,96433.31
2023-01-28T18:11:23.430Z,96433.31
2023-01-28T18:14:56.315Z,96437.26
2023-01-28T18:18:04.028Z,96437.99
2023-01-28T18:21:52.108Z,96437.67
2023-01-28T18:25:37.395Z,96439.37
2023-01-28T18:29:01.427Z,96433.84
2023-01-28T18:32:39.672Z,96431.48
2023-01-28T18:35:49.346Z,96429.28
2023-01-28T18:39:07.420Z,96430.96
2023-01-28T18:42:44.329Z,96432.14
2023-01-28T18:45:56.373Z,96425.16
2023-01-28T18:49:58.327Z,96431.92
2023-01-28T18:53:15.985Z,96436.79
2023-01-28T18:56:31.296Z,96437.40
2023-01-28T18:59:55.111Z,96437.41
2023-01-28T19:03:25.418Z,96437.10
2023-01-28T19:07:03.895Z,96440.45
2023-01-28T19:10:31.373Z,96444.36
2023-01-28T19:14:18.359Z,96442.27
2023-01-28T19:18:09.446Z,96442.35
2023-01-28T19:21:44.402Z,96442.50
2023-01-28T19:25:30.383Z,96450.95
2023-01-28T19:28:59.385Z,96448.20
2023-01-28T19:32:28.420Z,96450.98
2023-01-28T19:35:51.361Z,96457.29
2023-01-28T19:39:05.393Z,96459.13
2023-01-28T19:42:45.414Z,96460.77
2023-01-28T19:46:43.355Z,96466.11
2023-01-28T19:49:55.384Z,96460.66
2023-01-28T19:52:53.368Z,96466.14
2023-01-28T19:56:10.730Z,96465.86
2023-01-28T19:59:56.058Z,96462.56
2023-01-28T20:03:27.342Z,96464.73
2023-01-28T20:07:19.299Z,96469.53
2023-01-28T20:10:45.352Z,96470.99
2023-01-28T20:14:26.342Z,96475.95
2023-01-28T20:18:10.351Z,96482.42
2023-01-28T20:21:34.301Z,96484.55
2023-01-28T20:24:54.405Z,96488.80
2023-01-28T20:28:26.398Z,96487.02
2023-01-28T20:35:53.357Z,96487.44
2023-01-28T20:39:40.657Z,96487.66
2023-01-28T20:42:56.311Z,96488.27
2023-01-28T20:46:17.524Z,96491.69
2023-01-28T20:50:11.349Z,96493.92
2023-01-28T20:53:26.399Z,96499.22
2023-01-28T20:57:15.628Z,96498.94
2023-01-28T20:59:54.771Z,96497.52
2023-01-28T21:02:58.785Z,96501.27
2023-01-28T21:05:33.809Z,96500.43
2023-01-28T21:08:03.994Z,96505.98
2023-01-28T21:10:37.274Z,96511.88
2023-01-28T21:13:46.160Z,96513.86
2023-01-28T21:16:55.376Z,96511.61
2023-01-28T21:19:27.853Z,96515.07
2023-01-28T21:22:20.757Z,96514.31
2023-01-28T21:24:51.344Z,96517.38
2023-01-28T21:27:41.349Z,96514.25
2023-01-28T21:30:12.122Z,96509.12
2023-01-28T21:32:42.622Z,96508.23
2023-01-28T21:39:26.244Z,96509.18
2023-01-28T21:46:22.461Z,96518.50
2023-01-28T21:49:47.409Z,96519.45
2023-01-28T21:53:33.380Z,96524.59
2023-01-28T22:01:04.465Z,96520.52
2023-01-28T22:04:17.367Z,96518.96
2023-01-28T22:07:46.324Z,96519.04
2023-01-28T22:11:43.361Z,96519.27
2023-01-28T22:14:57.360Z,96520.52
2023-01-28T22:18:42.374Z,96520.52
2023-01-28T22:22:26.329Z,96523.13
2023-01-28T22:25:48.322Z,96525.34
2023-01-28T22:29:34.324Z,96525.65
2023-01-28T22:33:04.352Z,96528.94
2023-01-28T22:36:37.341Z,96528.54
2023-01-28T22:40:15.777Z,96525.23
2023-01-28T22:44:06.292Z,96527.24
2023-01-28T22:47:52.370Z,96529.86
2023-01-28T22:54:59.328Z,96533.42
2023-01-28T22:58:31.640Z,96530.64
2023-01-28T23:05:42.648Z,96532.79
2023-01-28T23:12:47.351Z,96533.41
2023-01-28T23:16:24.281Z,96533.20
2023-01-28T23:20:07.344Z,96534.73
2023-01-28T23:23:51.355Z,96533.50
2023-01-28T23:27:23.438Z,96535.04
2023-01-28T23:31:06.465Z,96539.48
2023-01-28T23:38:38.316Z,96545.69
2023-01-28T23:41:55.383Z,96539.24
2023-01-28T23:45:21.316Z,96543.68
2023-01-28T23:49:12.298Z,96541.33
2023-01-28T23:52:39.450Z,96541.65
2023-01-28T23:56:18.281Z,96544.29
